sensor_id;sensor_type;location;lat;lon;timestamp;P1;durP1;ratioP1;P2;durP2;ratioP2
21430;SDS011;10876;49.038;10.608;2023-11-21T00:00:18;2.33;;;1.10;;
21430;SDS011;10876;49.038;10.608;2023-11-21T00:02:47;0.80;;;0.80;;
21430;SDS011;10876;49.038;10.608;2023-11-21T00:05:14;4.53;;;0.77;;
21430;SDS011;10876;49.038;10.608;2023-11-21T00:07:41;0.70;;;0.70;;
21430;SDS011;10876;49.038;10.608;2023-11-21T00:10:09;1.17;;;0.80;;
21430;SDS011;10876;49.038;10.608;2023-11-21T00:12:39;1.10;;;0.80;;
21430;SDS011;10876;49.038;10.608;2023-11-21T00:15:07;0.50;;;0.50;;
21430;SDS011;10876;49.038;10.608;2023-11-21T00:17:37;0.60;;;0.60;;
21430;SDS011;10876;49.038;10.608;2023-11-21T00:20:05;0.50;;;0.50;;
21430;SDS011;10876;49.038;10.608;2023-11-21T00:22:33;2.60;;;1.00;;
21430;SDS011;10876;49.038;10.608;2023-11-21T00:25:01;5.57;;;1.00;;
21430;SDS011;10876;49.038;10.608;2023-11-21T00:27:29;1.00;;;0.77;;
21430;SDS011;10876;49.038;10.608;2023-11-21T00:29:58;1.00;;;0.85;;
21430;SDS011;10876;49.038;10.608;2023-11-21T00:32:25;1.42;;;1.02;;
21430;SDS011;10876;49.038;10.608;2023-11-21T00:34:53;3.20;;;0.80;;
21430;SDS011;10876;49.038;10.608;2023-11-21T00:37:21;1.52;;;1.17;;
21430;SDS011;10876;49.038;10.608;2023-11-21T00:39:49;0.68;;;0.68;;
21430;SDS011;10876;49.038;10.608;2023-11-21T00:42:16;1.20;;;1.10;;
21430;SDS011;10876;49.038;10.608;2023-11-21T00:44:42;4.85;;;0.85;;
21430;SDS011;10876;49.038;10.608;2023-11-21T00:47:09;0.70;;;0.63;;
21430;SDS011;10876;49.038;10.608;2023-11-21T00:49:36;0.98;;;0.50;;
21430;SDS011;10876;49.038;10.608;2023-11-21T00:52:06;3.17;;;0.60;;
21430;SDS011;10876;49.038;10.608;2023-11-21T00:54:33;0.57;;;0.52;;
21430;SDS011;10876;49.038;10.608;2023-11-21T00:56:59;0.50;;;0.50;;
21430;SDS011;10876;49.038;10.608;2023-11-21T00:59:26;3.47;;;0.73;;
21430;SDS011;10876;49.038;10.608;2023-11-21T01:01:53;0.30;;;0.30;;
21430;SDS011;10876;49.038;10.608;2023-11-21T01:04:23;0.73;;;0.45;;
21430;SDS011;10876;49.038;10.608;2023-11-21T01:06:49;0.43;;;0.38;;
21430;SDS011;10876;49.038;10.608;2023-11-21T01:09:17;0.65;;;0.50;;
21430;SDS011;10876;49.038;10.608;2023-11-21T01:11:44;0.38;;;0.32;;
21430;SDS011;10876;49.038;10.608;2023-11-21T01:14:11;1.00;;;0.43;;
21430;SDS011;10876;49.038;10.608;2023-11-21T01:16:38;0.30;;;0.30;;
21430;SDS011;10876;49.038;10.608;2023-11-21T01:19:05;0.45;;;0.40;;
21430;SDS011;10876;49.038;10.608;2023-11-21T01:21:31;0.20;;;0.20;;
21430;SDS011;10876;49.038;10.608;2023-11-21T01:23:59;0.30;;;0.30;;
21430;SDS011;10876;49.038;10.608;2023-11-21T01:26:30;0.20;;;0.20;;
21430;SDS011;10876;49.038;10.608;2023-11-21T01:28:56;0.82;;;0.20;;
21430;SDS011;10876;49.038;10.608;2023-11-21T01:31:23;1.92;;;0.45;;
21430;SDS011;10876;49.038;10.608;2023-11-21T01:33:54;2.38;;;0.40;;
21430;SDS011;10876;49.038;10.608;2023-11-21T01:36:21;0.65;;;0.65;;
21430;SDS011;10876;49.038;10.608;2023-11-21T01:38:48;0.70;;;0.30;;
21430;SDS011;10876;49.038;10.608;2023-11-21T01:41:14;0.95;;;0.43;;
21430;SDS011;10876;49.038;10.608;2023-11-21T01:43:42;1.02;;;0.50;;
21430;SDS011;10876;49.038;10.608;2023-11-21T01:46:09;0.38;;;0.38;;
21430;SDS011;10876;49.038;10.608;2023-11-21T01:48:36;3.17;;;0.70;;
21430;SDS011;10876;49.038;10.608;2023-11-21T01:51:03;0.30;;;0.30;;
21430;SDS011;10876;49.038;10.608;2023-11-21T01:53:33;2.95;;;0.40;;
21430;SDS011;10876;49.038;10.608;2023-11-21T01:56:02;0.73;;;0.60;;
21430;SDS011;10876;49.038;10.608;2023-11-21T01:58:28;0.60;;;0.45;;
21430;SDS011;10876;49.038;10.608;2023-11-21T02:00:57;0.73;;;0.70;;
21430;SDS011;10876;49.038;10.608;2023-11-21T02:03:23;2.17;;;0.43;;
21430;SDS011;10876;49.038;10.608;2023-11-21T02:05:52;0.50;;;0.47;;
21430;SDS011;10876;49.038;10.608;2023-11-21T02:08:19;0.40;;;0.40;;
21430;SDS011;10876;49.038;10.608;2023-11-21T02:10:45;1.15;;;0.68;;
21430;SDS011;10876;49.038;10.608;2023-11-21T02:13:12;2.10;;;1.42;;
21430;SDS011;10876;49.038;10.608;2023-11-21T02:15:40;0.40;;;0.40;;
21430;SDS011;10876;49.038;10.608;2023-11-21T02:18:08;0.88;;;0.75;;
21430;SDS011;10876;49.038;10.608;2023-11-21T02:20:36;4.28;;;1.25;;
21430;SDS011;10876;49.038;10.608;2023-11-21T02:23:13;0.73;;;0.73;;
21430;SDS011;10876;49.038;10.608;2023-11-21T02:25:39;1.80;;;0.70;;
21430;SDS011;10876;49.038;10.608;2023-11-21T02:28:08;3.70;;;0.80;;
21430;SDS011;10876;49.038;10.608;2023-11-21T02:30:37;2.58;;;0.85;;
21430;SDS011;10876;49.038;10.608;2023-11-21T02:33:04;1.27;;;0.98;;
21430;SDS011;10876;49.038;10.608;2023-11-21T02:35:32;0.70;;;0.63;;
21430;SDS011;10876;49.038;10.608;2023-11-21T02:40:37;4.05;;;0.90;;
21430;SDS011;10876;49.038;10.608;2023-11-21T02:43:04;0.47;;;0.47;;
21430;SDS011;10876;49.038;10.608;2023-11-21T02:45:31;1.10;;;0.73;;
21430;SDS011;10876;49.038;10.608;2023-11-21T02:47:58;0.70;;;0.68;;
21430;SDS011;10876;49.038;10.608;2023-11-21T02:50:25;2.78;;;0.82;;
21430;SDS011;10876;49.038;10.608;2023-11-21T02:52:52;1.77;;;0.75;;
21430;SDS011;10876;49.038;10.608;2023-11-21T02:55:19;1.20;;;1.10;;
21430;SDS011;10876;49.038;10.608;2023-11-21T02:57:47;2.13;;;1.02;;
21430;SDS011;10876;49.038;10.608;2023-11-21T03:00:15;0.77;;;0.70;;
21430;SDS011;10876;49.038;10.608;2023-11-21T03:03:19;1.45;;;1.35;;
21430;SDS011;10876;49.038;10.608;2023-11-21T03:05:55;6.63;;;1.27;;
21430;SDS011;10876;49.038;10.608;2023-11-21T03:08:21;0.82;;;0.73;;
21430;SDS011;10876;49.038;10.608;2023-11-21T03:10:48;1.20;;;0.93;;
21430;SDS011;10876;49.038;10.608;2023-11-21T03:13:17;0.55;;;0.55;;
21430;SDS011;10876;49.038;10.608;2023-11-21T03:15:43;3.53;;;1.70;;
21430;SDS011;10876;49.038;10.608;2023-11-21T03:18:21;1.10;;;0.85;;
21430;SDS011;10876;49.038;10.608;2023-11-21T03:20:48;1.92;;;1.42;;
21430;SDS011;10876;49.038;10.608;2023-11-21T03:23:15;0.90;;;0.90;;
21430;SDS011;10876;49.038;10.608;2023-11-21T03:25:42;0.68;;;0.68;;
21430;SDS011;10876;49.038;10.608;2023-11-21T03:28:09;1.55;;;1.10;;
21430;SDS011;10876;49.038;10.608;2023-11-21T03:30:37;0.93;;;0.85;;
21430;SDS011;10876;49.038;10.608;2023-11-21T03:33:04;2.13;;;0.90;;
21430;SDS011;10876;49.038;10.608;2023-11-21T03:42:07;4.28;;;1.15;;
21430;SDS011;10876;49.038;10.608;2023-11-21T03:44:34;1.23;;;0.73;;
21430;SDS011;10876;49.038;10.608;2023-11-21T03:47:02;2.70;;;1.63;;
21430;SDS011;10876;49.038;10.608;2023-11-21T03:49:36;0.93;;;0.93;;
21430;SDS011;10876;49.038;10.608;2023-11-21T03:52:40;0.80;;;0.80;;
21430;SDS011;10876;49.038;10.608;2023-11-21T03:55:28;1.73;;;0.97;;
21430;SDS011;10876;49.038;10.608;2023-11-21T04:00:59;2.40;;;1.00;;
21430;SDS011;10876;49.038;10.608;2023-11-21T04:03:30;3.03;;;1.25;;
21430;SDS011;10876;49.038;10.608;2023-11-21T04:06:18;1.70;;;1.25;;
21430;SDS011;10876;49.038;10.608;2023-11-21T04:12:17;2.97;;;2.15;;
21430;SDS011;10876;49.038;10.608;2023-11-21T04:15:12;2.30;;;1.60;;
21430;SDS011;10876;49.038;10.608;2023-11-21T04:21:02;1.20;;;0.85;;
21430;SDS011;10876;49.038;10.608;2023-11-21T04:27:31;1.88;;;1.02;;
21430;SDS011;10876;49.038;10.608;2023-11-21T04:30:07;0.88;;;0.88;;
21430;SDS011;10876;49.038;10.608;2023-11-21T04:32:45;1.92;;;0.80;;
21430;SDS011;10876;49.038;10.608;2023-11-21T04:35:18;2.63;;;0.98;;
21430;SDS011;10876;49.038;10.608;2023-11-21T04:51:06;0.80;;;0.70;;
21430;SDS011;10876;49.038;10.608;2023-11-21T04:53:51;1.35;;;1.10;;
21430;SDS011;10876;49.038;10.608;2023-11-21T04:56:37;1.27;;;0.65;;
21430;SDS011;10876;49.038;10.608;2023-11-21T04:59:22;1.00;;;0.98;;
21430;SDS011;10876;49.038;10.608;2023-11-21T05:01:50;2.15;;;1.00;;
21430;SDS011;10876;49.038;10.608;2023-11-21T05:04:16;0.82;;;0.77;;
21430;SDS011;10876;49.038;10.608;2023-11-21T05:06:45;1.02;;;0.75;;
21430;SDS011;10876;49.038;10.608;2023-11-21T05:09:11;0.60;;;0.50;;
21430;SDS011;10876;49.038;10.608;2023-11-21T05:11:38;0.52;;;0.52;;
21430;SDS011;10876;49.038;10.608;2023-11-21T05:20:53;5.35;;;0.98;;
21430;SDS011;10876;49.038;10.608;2023-11-21T05:23:21;0.70;;;0.70;;
21430;SDS011;10876;49.038;10.608;2023-11-21T05:25:48;2.17;;;0.95;;
21430;SDS011;10876;49.038;10.608;2023-11-21T05:28:15;1.92;;;1.38;;
21430;SDS011;10876;49.038;10.608;2023-11-21T05:30:44;1.73;;;1.15;;
21430;SDS011;10876;49.038;10.608;2023-11-21T05:33:15;1.48;;;1.20;;
21430;SDS011;10876;49.038;10.608;2023-11-21T05:35:42;1.48;;;0.82;;
21430;SDS011;10876;49.038;10.608;2023-11-21T05:38:08;0.90;;;0.68;;
21430;SDS011;10876;49.038;10.608;2023-11-21T05:40:37;2.33;;;1.85;;
21430;SDS011;10876;49.038;10.608;2023-11-21T05:43:03;1.60;;;1.08;;
21430;SDS011;10876;49.038;10.608;2023-11-21T05:45:51;1.73;;;1.20;;
21430;SDS011;10876;49.038;10.608;2023-11-21T05:48:25;2.95;;;1.23;;
21430;SDS011;10876;49.038;10.608;2023-11-21T05:50:55;1.80;;;1.63;;
21430;SDS011;10876;49.038;10.608;2023-11-21T05:53:21;6.80;;;1.13;;
21430;SDS011;10876;49.038;10.608;2023-11-21T06:07:59;1.90;;;1.23;;
21430;SDS011;10876;49.038;10.608;2023-11-21T06:10:31;2.95;;;1.30;;
21430;SDS011;10876;49.038;10.608;2023-11-21T06:13:50;6.68;;;2.08;;
21430;SDS011;10876;49.038;10.608;2023-11-21T06:20:20;3.67;;;1.25;;
21430;SDS011;10876;49.038;10.608;2023-11-21T06:26:25;5.30;;;1.90;;
21430;SDS011;10876;49.038;10.608;2023-11-21T06:29:12;1.25;;;1.13;;
21430;SDS011;10876;49.038;10.608;2023-11-21T06:31:58;3.10;;;1.45;;
21430;SDS011;10876;49.038;10.608;2023-11-21T06:34:49;1.58;;;1.20;;
21430;SDS011;10876;49.038;10.608;2023-11-21T06:37:32;5.03;;;1.27;;
21430;SDS011;10876;49.038;10.608;2023-11-21T06:43:06;6.30;;;1.98;;
21430;SDS011;10876;49.038;10.608;2023-11-21T06:48:32;4.55;;;1.98;;
21430;SDS011;10876;49.038;10.608;2023-11-21T06:50:59;1.42;;;1.25;;
21430;SDS011;10876;49.038;10.608;2023-11-21T06:53:25;2.28;;;1.65;;
21430;SDS011;10876;49.038;10.608;2023-11-21T06:55:54;3.33;;;1.95;;
21430;SDS011;10876;49.038;10.608;2023-11-21T06:58:22;4.10;;;1.60;;
21430;SDS011;10876;49.038;10.608;2023-11-21T07:00:51;4.43;;;1.70;;
21430;SDS011;10876;49.038;10.608;2023-11-21T07:03:18;1.75;;;1.65;;
21430;SDS011;10876;49.038;10.608;2023-11-21T07:05:51;2.72;;;1.92;;
21430;SDS011;10876;49.038;10.608;2023-11-21T07:08:18;3.60;;;1.95;;
21430;SDS011;10876;49.038;10.608;2023-11-21T07:10:44;3.00;;;1.70;;
21430;SDS011;10876;49.038;10.608;2023-11-21T07:13:12;1.73;;;1.38;;
21430;SDS011;10876;49.038;10.608;2023-11-21T07:15:40;5.50;;;2.05;;
21430;SDS011;10876;49.038;10.608;2023-11-21T07:18:11;1.60;;;1.38;;
21430;SDS011;10876;49.038;10.608;2023-11-21T07:20:38;2.00;;;1.60;;
21430;SDS011;10876;49.038;10.608;2023-11-21T07:23:05;2.78;;;2.08;;
21430;SDS011;10876;49.038;10.608;2023-11-21T07:25:32;3.92;;;1.88;;
21430;SDS011;10876;49.038;10.608;2023-11-21T07:27:59;2.00;;;1.48;;
21430;SDS011;10876;49.038;10.608;2023-11-21T07:30:25;2.42;;;1.40;;
21430;SDS011;10876;49.038;10.608;2023-11-21T07:32:53;4.85;;;2.28;;
21430;SDS011;10876;49.038;10.608;2023-11-21T07:35:20;2.97;;;1.85;;
21430;SDS011;10876;49.038;10.608;2023-11-21T07:37:47;1.65;;;1.50;;
21430;SDS011;10876;49.038;10.608;2023-11-21T07:40:27;2.92;;;2.05;;
21430;SDS011;10876;49.038;10.608;2023-11-21T07:46:06;2.53;;;1.98;;
21430;SDS011;10876;49.038;10.608;2023-11-21T07:48:51;1.90;;;1.52;;
21430;SDS011;10876;49.038;10.608;2023-11-21T07:51:21;1.95;;;1.45;;
21430;SDS011;10876;49.038;10.608;2023-11-21T07:53:51;2.25;;;1.75;;
21430;SDS011;10876;49.038;10.608;2023-11-21T07:56:19;1.88;;;1.48;;
21430;SDS011;10876;49.038;10.608;2023-11-21T07:58:56;2.00;;;1.33;;
21430;SDS011;10876;49.038;10.608;2023-11-21T08:04:27;1.95;;;1.35;;
21430;SDS011;10876;49.038;10.608;2023-11-21T08:07:03;1.30;;;1.17;;
21430;SDS011;10876;49.038;10.608;2023-11-21T08:09:37;1.38;;;1.27;;
21430;SDS011;10876;49.038;10.608;2023-11-21T08:12:19;5.28;;;1.23;;
21430;SDS011;10876;49.038;10.608;2023-11-21T08:17:53;3.97;;;1.20;;
21430;SDS011;10876;49.038;10.608;2023-11-21T08:26:37;3.53;;;1.70;;
21430;SDS011;10876;49.038;10.608;2023-11-21T08:29:15;1.38;;;1.02;;
21430;SDS011;10876;49.038;10.608;2023-11-21T08:34:58;2.03;;;1.73;;
21430;SDS011;10876;49.038;10.608;2023-11-21T08:37:31;3.35;;;1.80;;
21430;SDS011;10876;49.038;10.608;2023-11-21T08:40:19;2.83;;;1.80;;
21430;SDS011;10876;49.038;10.608;2023-11-21T08:42:52;2.22;;;1.45;;
21430;SDS011;10876;49.038;10.608;2023-11-21T08:45:44;2.47;;;1.70;;
21430;SDS011;10876;49.038;10.608;2023-11-21T08:48:44;7.35;;;2.40;;
21430;SDS011;10876;49.038;10.608;2023-11-21T08:51:30;2.78;;;1.50;;
21430;SDS011;10876;49.038;10.608;2023-11-21T08:54:10;2.70;;;1.70;;
21430;SDS011;10876;49.038;10.608;2023-11-21T08:56:51;2.28;;;1.60;;
21430;SDS011;10876;49.038;10.608;2023-11-21T08:59:19;4.47;;;1.52;;
21430;SDS011;10876;49.038;10.608;2023-11-21T09:02:35;2.78;;;1.70;;
21430;SDS011;10876;49.038;10.608;2023-11-21T09:04:38;1.48;;;1.17;;
21430;SDS011;10876;49.038;10.608;2023-11-21T09:07:07;5.00;;;1.40;;
21430;SDS011;10876;49.038;10.608;2023-11-21T09:09:57;1.83;;;1.70;;
21430;SDS011;10876;49.038;10.608;2023-11-21T09:12:35;1.35;;;1.25;;
21430;SDS011;10876;49.038;10.608;2023-11-21T09:20:56;2.65;;;1.60;;
21430;SDS011;10876;49.038;10.608;2023-11-21T09:23:42;2.17;;;0.95;;
21430;SDS011;10876;49.038;10.608;2023-11-21T09:26:23;1.40;;;1.00;;
21430;SDS011;10876;49.038;10.608;2023-11-21T09:28:58;0.73;;;0.73;;
21430;SDS011;10876;49.038;10.608;2023-11-21T09:31:33;1.38;;;0.95;;
21430;SDS011;10876;49.038;10.608;2023-11-21T09:34:09;3.45;;;1.17;;
21430;SDS011;10876;49.038;10.608;2023-11-21T09:36:46;0.60;;;0.60;;
21430;SDS011;10876;49.038;10.608;2023-11-21T09:39:29;1.23;;;0.95;;
21430;SDS011;10876;49.038;10.608;2023-11-21T09:41:57;1.98;;;0.90;;
21430;SDS011;10876;49.038;10.608;2023-11-21T09:44:44;1.23;;;0.93;;
21430;SDS011;10876;49.038;10.608;2023-11-21T09:47:17;1.42;;;1.10;;
21430;SDS011;10876;49.038;10.608;2023-11-21T09:49:58;1.90;;;1.10;;
21430;SDS011;10876;49.038;10.608;2023-11-21T09:52:48;2.40;;;1.20;;
21430;SDS011;10876;49.038;10.608;2023-11-21T09:55:35;3.80;;;1.90;;
21430;SDS011;10876;49.038;10.608;2023-11-21T09:58:08;1.98;;;1.23;;
21430;SDS011;10876;49.038;10.608;2023-11-21T10:00:47;1.80;;;1.17;;
21430;SDS011;10876;49.038;10.608;2023-11-21T10:03:31;2.22;;;1.17;;
21430;SDS011;10876;49.038;10.608;2023-11-21T10:11:52;2.35;;;1.20;;
21430;SDS011;10876;49.038;10.608;2023-11-21T10:14:32;1.80;;;1.15;;
21430;SDS011;10876;49.038;10.608;2023-11-21T10:17:07;1.17;;;0.90;;
21430;SDS011;10876;49.038;10.608;2023-11-21T10:19:48;2.33;;;1.40;;
21430;SDS011;10876;49.038;10.608;2023-11-21T10:22:29;0.80;;;0.80;;
21430;SDS011;10876;49.038;10.608;2023-11-21T10:25:07;1.38;;;0.80;;
21430;SDS011;10876;49.038;10.608;2023-11-21T10:27:56;0.90;;;0.85;;
21430;SDS011;10876;49.038;10.608;2023-11-21T10:30:24;0.65;;;0.60;;
21430;SDS011;10876;49.038;10.608;2023-11-21T10:33:12;0.75;;;0.75;;
21430;SDS011;10876;49.038;10.608;2023-11-21T10:35:44;3.17;;;1.75;;
21430;SDS011;10876;49.038;10.608;2023-11-21T10:38:19;0.95;;;0.73;;
21430;SDS011;10876;49.038;10.608;2023-11-21T10:41:01;0.63;;;0.63;;
21430;SDS011;10876;49.038;10.608;2023-11-21T10:43:42;1.40;;;1.00;;
21430;SDS011;10876;49.038;10.608;2023-11-21T10:46:27;0.93;;;0.82;;
21430;SDS011;10876;49.038;10.608;2023-11-21T10:48:57;1.17;;;1.05;;
21430;SDS011;10876;49.038;10.608;2023-11-21T10:51:44;1.05;;;0.70;;
21430;SDS011;10876;49.038;10.608;2023-11-21T10:54:41;4.85;;;0.77;;
21430;SDS011;10876;49.038;10.608;2023-11-21T11:00:25;0.70;;;0.57;;
21430;SDS011;10876;49.038;10.608;2023-11-21T11:03:03;1.77;;;0.70;;
21430;SDS011;10876;49.038;10.608;2023-11-21T11:05:39;0.70;;;0.70;;
21430;SDS011;10876;49.038;10.608;2023-11-21T11:11:47;1.05;;;0.95;;
21430;SDS011;10876;49.038;10.608;2023-11-21T11:14:31;0.85;;;0.77;;
21430;SDS011;10876;49.038;10.608;2023-11-21T11:26:06;0.30;;;0.30;;
21430;SDS011;10876;49.038;10.608;2023-11-21T11:28:42;0.22;;;0.22;;
21430;SDS011;10876;49.038;10.608;2023-11-21T11:32:08;0.30;;;0.30;;
21430;SDS011;10876;49.038;10.608;2023-11-21T11:35:17;0.25;;;0.25;;
21430;SDS011;10876;49.038;10.608;2023-11-21T11:37:51;0.20;;;0.20;;
21430;SDS011;10876;49.038;10.608;2023-11-21T11:43:50;0.20;;;0.20;;
21430;SDS011;10876;49.038;10.608;2023-11-21T11:50:02;0.30;;;0.30;;
21430;SDS011;10876;49.038;10.608;2023-11-21T11:52:54;0.40;;;0.40;;
21430;SDS011;10876;49.038;10.608;2023-11-21T11:55:41;0.20;;;0.20;;
21430;SDS011;10876;49.038;10.608;2023-11-21T11:58:27;0.73;;;0.40;;
21430;SDS011;10876;49.038;10.608;2023-11-21T12:04:25;0.30;;;0.30;;
21430;SDS011;10876;49.038;10.608;2023-11-21T12:07:06;0.80;;;0.30;;
21430;SDS011;10876;49.038;10.608;2023-11-21T12:09:39;0.45;;;0.40;;
21430;SDS011;10876;49.038;10.608;2023-11-21T12:12:13;0.30;;;0.30;;
21430;SDS011;10876;49.038;10.608;2023-11-21T12:14:42;0.55;;;0.40;;
21430;SDS011;10876;49.038;10.608;2023-11-21T12:17:38;0.93;;;0.63;;
21430;SDS011;10876;49.038;10.608;2023-11-21T12:23:51;0.68;;;0.52;;
21430;SDS011;10876;49.038;10.608;2023-11-21T12:26:40;0.52;;;0.47;;
21430;SDS011;10876;49.038;10.608;2023-11-21T12:29:09;0.70;;;0.52;;
21430;SDS011;10876;49.038;10.608;2023-11-21T12:31:53;3.88;;;0.70;;
21430;SDS011;10876;49.038;10.608;2023-11-21T12:37:08;0.40;;;0.40;;
21430;SDS011;10876;49.038;10.608;2023-11-21T12:43:02;0.75;;;0.60;;
21430;SDS011;10876;49.038;10.608;2023-11-21T12:45:45;0.60;;;0.43;;
21430;SDS011;10876;49.038;10.608;2023-11-21T12:48:15;0.60;;;0.60;;
21430;SDS011;10876;49.038;10.608;2023-11-21T12:51:11;0.80;;;0.52;;
21430;SDS011;10876;49.038;10.608;2023-11-21T12:54:15;1.15;;;0.47;;
21430;SDS011;10876;49.038;10.608;2023-11-21T12:56:45;1.75;;;0.80;;
21430;SDS011;10876;49.038;10.608;2023-11-21T12:59:24;1.73;;;0.50;;
21430;SDS011;10876;49.038;10.608;2023-11-21T13:02:14;2.10;;;0.88;;
21430;SDS011;10876;49.038;10.608;2023-11-21T13:05:15;0.30;;;0.30;;
21430;SDS011;10876;49.038;10.608;2023-11-21T13:07:49;0.77;;;0.60;;
21430;SDS011;10876;49.038;10.608;2023-11-21T13:13:28;0.88;;;0.57;;
21430;SDS011;10876;49.038;10.608;2023-11-21T13:16:10;0.77;;;0.75;;
21430;SDS011;10876;49.038;10.608;2023-11-21T13:18:58;3.55;;;0.68;;
21430;SDS011;10876;49.038;10.608;2023-11-21T13:24:42;4.43;;;1.02;;
21430;SDS011;10876;49.038;10.608;2023-11-21T13:27:22;0.90;;;0.70;;
21430;SDS011;10876;49.038;10.608;2023-11-21T13:30:14;0.70;;;0.60;;
21430;SDS011;10876;49.038;10.608;2023-11-21T13:33:23;0.70;;;0.70;;
21430;SDS011;10876;49.038;10.608;2023-11-21T13:36:11;0.68;;;0.57;;
21430;SDS011;10876;49.038;10.608;2023-11-21T13:38:42;0.85;;;0.70;;
21430;SDS011;10876;49.038;10.608;2023-11-21T13:41:11;0.65;;;0.63;;
21430;SDS011;10876;49.038;10.608;2023-11-21T13:44:04;0.50;;;0.50;;
21430;SDS011;10876;49.038;10.608;2023-11-21T13:46:41;1.23;;;0.73;;
21430;SDS011;10876;49.038;10.608;2023-11-21T13:49:13;0.82;;;0.70;;
21430;SDS011;10876;49.038;10.608;2023-11-21T13:51:43;1.00;;;0.70;;
21430;SDS011;10876;49.038;10.608;2023-11-21T13:54:13;1.88;;;0.80;;
21430;SDS011;10876;49.038;10.608;2023-11-21T13:56:40;0.68;;;0.65;;
21430;SDS011;10876;49.038;10.608;2023-11-21T13:59:09;1.35;;;0.90;;
21430;SDS011;10876;49.038;10.608;2023-11-21T14:01:44;0.82;;;0.82;;
21430;SDS011;10876;49.038;10.608;2023-11-21T14:04:22;2.05;;;0.90;;
21430;SDS011;10876;49.038;10.608;2023-11-21T14:07:04;0.80;;;0.80;;
21430;SDS011;10876;49.038;10.608;2023-11-21T14:09:45;1.13;;;1.00;;
21430;SDS011;10876;49.038;10.608;2023-11-21T14:12:14;2.28;;;0.98;;
21430;SDS011;10876;49.038;10.608;2023-11-21T14:14:43;1.23;;;1.00;;
21430;SDS011;10876;49.038;10.608;2023-11-21T14:17:10;2.28;;;1.17;;
21430;SDS011;10876;49.038;10.608;2023-11-21T14:19:38;0.88;;;0.55;;
21430;SDS011;10876;49.038;10.608;2023-11-21T14:22:08;1.52;;;1.23;;
21430;SDS011;10876;49.038;10.608;2023-11-21T14:24:38;1.00;;;0.90;;
21430;SDS011;10876;49.038;10.608;2023-11-21T14:27:09;2.03;;;1.23;;
21430;SDS011;10876;49.038;10.608;2023-11-21T14:29:36;2.35;;;0.90;;
21430;SDS011;10876;49.038;10.608;2023-11-21T14:32:06;2.42;;;0.80;;
21430;SDS011;10876;49.038;10.608;2023-11-21T14:34:35;0.60;;;0.60;;
21430;SDS011;10876;49.038;10.608;2023-11-21T14:37:13;0.88;;;0.52;;
21430;SDS011;10876;49.038;10.608;2023-11-21T14:39:40;2.05;;;1.25;;
21430;SDS011;10876;49.038;10.608;2023-11-21T14:42:10;1.05;;;0.75;;
21430;SDS011;10876;49.038;10.608;2023-11-21T14:44:36;0.57;;;0.57;;
21430;SDS011;10876;49.038;10.608;2023-11-21T14:47:06;1.38;;;1.10;;
21430;SDS011;10876;49.038;10.608;2023-11-21T14:49:40;1.67;;;1.10;;
21430;SDS011;10876;49.038;10.608;2023-11-21T14:52:10;2.30;;;1.13;;
21430;SDS011;10876;49.038;10.608;2023-11-21T14:54:55;1.08;;;0.90;;
21430;SDS011;10876;49.038;10.608;2023-11-21T14:57:42;1.58;;;1.15;;
21430;SDS011;10876;49.038;10.608;2023-11-21T15:00:21;1.98;;;1.38;;
21430;SDS011;10876;49.038;10.608;2023-11-21T15:03:05;1.27;;;0.80;;
21430;SDS011;10876;49.038;10.608;2023-11-21T15:05:46;0.50;;;0.50;;
21430;SDS011;10876;49.038;10.608;2023-11-21T15:08:18;1.90;;;1.02;;
21430;SDS011;10876;49.038;10.608;2023-11-21T15:10:54;1.08;;;0.82;;
21430;SDS011;10876;49.038;10.608;2023-11-21T15:13:20;1.60;;;1.15;;
21430;SDS011;10876;49.038;10.608;2023-11-21T15:15:47;1.27;;;1.13;;
21430;SDS011;10876;49.038;10.608;2023-11-21T15:18:15;2.22;;;1.20;;
21430;SDS011;10876;49.038;10.608;2023-11-21T15:20:42;1.65;;;1.10;;
21430;SDS011;10876;49.038;10.608;2023-11-21T15:23:09;2.03;;;1.40;;
21430;SDS011;10876;49.038;10.608;2023-11-21T15:25:37;4.88;;;1.77;;
21430;SDS011;10876;49.038;10.608;2023-11-21T15:28:05;2.65;;;1.67;;
21430;SDS011;10876;49.038;10.608;2023-11-21T15:30:32;1.95;;;1.23;;
21430;SDS011;10876;49.038;10.608;2023-11-21T15:33:09;2.15;;;1.25;;
21430;SDS011;10876;49.038;10.608;2023-11-21T15:35:37;1.80;;;1.27;;
21430;SDS011;10876;49.038;10.608;2023-11-21T15:38:06;2.75;;;1.20;;
21430;SDS011;10876;49.038;10.608;2023-11-21T15:40:33;3.13;;;1.77;;
21430;SDS011;10876;49.038;10.608;2023-11-21T15:43:00;4.80;;;1.90;;
21430;SDS011;10876;49.038;10.608;2023-11-21T15:45:29;3.53;;;2.13;;
21430;SDS011;10876;49.038;10.608;2023-11-21T15:47:56;2.15;;;1.92;;
21430;SDS011;10876;49.038;10.608;2023-11-21T15:50:28;3.63;;;1.83;;
21430;SDS011;10876;49.038;10.608;2023-11-21T15:52:56;3.05;;;1.42;;
21430;SDS011;10876;49.038;10.608;2023-11-21T15:55:23;1.90;;;1.00;;
21430;SDS011;10876;49.038;10.608;2023-11-21T15:57:50;2.22;;;1.42;;
21430;SDS011;10876;49.038;10.608;2023-11-21T16:00:17;1.67;;;1.52;;
21430;SDS011;10876;49.038;10.608;2023-11-21T16:02:48;1.33;;;0.90;;
21430;SDS011;10876;49.038;10.608;2023-11-21T16:05:16;2.15;;;1.65;;
21430;SDS011;10876;49.038;10.608;2023-11-21T16:07:43;1.90;;;1.45;;
21430;SDS011;10876;49.038;10.608;2023-11-21T16:10:10;3.88;;;1.83;;
21430;SDS011;10876;49.038;10.608;2023-11-21T16:12:37;3.05;;;2.00;;
21430;SDS011;10876;49.038;10.608;2023-11-21T16:15:16;3.15;;;2.45;;
21430;SDS011;10876;49.038;10.608;2023-11-21T16:17:43;2.33;;;1.63;;
21430;SDS011;10876;49.038;10.608;2023-11-21T16:20:13;2.13;;;1.42;;
21430;SDS011;10876;49.038;10.608;2023-11-21T16:22:41;2.22;;;1.40;;
21430;SDS011;10876;49.038;10.608;2023-11-21T16:25:10;3.30;;;1.70;;
21430;SDS011;10876;49.038;10.608;2023-11-21T16:27:38;1.83;;;1.45;;
21430;SDS011;10876;49.038;10.608;2023-11-21T16:30:14;2.72;;;1.67;;
21430;SDS011;10876;49.038;10.608;2023-11-21T16:32:43;2.60;;;1.80;;
21430;SDS011;10876;49.038;10.608;2023-11-21T16:35:15;1.98;;;1.45;;
21430;SDS011;10876;49.038;10.608;2023-11-21T16:37:43;2.97;;;1.70;;
21430;SDS011;10876;49.038;10.608;2023-11-21T16:40:14;5.63;;;2.85;;
21430;SDS011;10876;49.038;10.608;2023-11-21T16:42:54;6.40;;;3.47;;
21430;SDS011;10876;49.038;10.608;2023-11-21T16:45:26;4.25;;;2.80;;
21430;SDS011;10876;49.038;10.608;2023-11-21T16:48:02;32.75;;;12.68;;
21430;SDS011;10876;49.038;10.608;2023-11-21T16:50:36;14.57;;;6.25;;
21430;SDS011;10876;49.038;10.608;2023-11-21T16:53:05;6.20;;;3.63;;
21430;SDS011;10876;49.038;10.608;2023-11-21T16:55:32;12.13;;;5.50;;
21430;SDS011;10876;49.038;10.608;2023-11-21T16:57:59;8.40;;;4.60;;
21430;SDS011;10876;49.038;10.608;2023-11-21T17:00:26;11.35;;;5.38;;
21430;SDS011;10876;49.038;10.608;2023-11-21T17:02:54;11.13;;;5.25;;
21430;SDS011;10876;49.038;10.608;2023-11-21T17:05:23;11.07;;;6.43;;
21430;SDS011;10876;49.038;10.608;2023-11-21T17:07:52;7.88;;;5.40;;
21430;SDS011;10876;49.038;10.608;2023-11-21T17:10:19;13.40;;;6.13;;
21430;SDS011;10876;49.038;10.608;2023-11-21T17:12:47;11.68;;;6.32;;
21430;SDS011;10876;49.038;10.608;2023-11-21T17:15:17;10.88;;;5.97;;
21430;SDS011;10876;49.038;10.608;2023-11-21T17:17:49;10.18;;;6.00;;
21430;SDS011;10876;49.038;10.608;2023-11-21T17:20:16;14.98;;;7.15;;
21430;SDS011;10876;49.038;10.608;2023-11-21T17:22:44;12.55;;;5.82;;
21430;SDS011;10876;49.038;10.608;2023-11-21T17:25:12;10.52;;;6.07;;
21430;SDS011;10876;49.038;10.608;2023-11-21T17:27:39;12.77;;;7.57;;
21430;SDS011;10876;49.038;10.608;2023-11-21T17:30:13;12.85;;;7.88;;